»·PEaware :: SKY103 KORS-KEAT

SKY103 :: KORS-KEAT

FLIGHT INFORMATION

Flight Status: Arrived
Operator:
Sky High Charters
More flights by this operator :: More flights under this callsign
Pilot: Andrew C. (28419)
Aircraft: SOCATA TBM-900
(TBM9)
More flights by this aircraft type
Origin: KORS Orcas Island
United States
Destination: KEAT Pangborn Meml
United States
More flights between these airports :: More routes between these airports
Route: +FEGBA2 FEGBA SEA V2 ELN V25 EAT
File this flight plan on PilotEdge
Remarks:
Altitude:
(Current/Filed)
9,000ft
Speed:
(Current/Filed)
220kts
Departed: 29-Aug-20 07:55 PM
Arrived: 29-Aug-20 08:45 PM
Distance/Time
Traveled:
134nm/0:50
Distance/Time
To Go:
Arrived

Flight Plot

Page will automatically refresh every two minutes.

Flight plan parsing failed; only flown route is shown


Map Options




Map Legend


Flown Route
Filed Route
Departure Airport
Arrival Airport
Navaid (VOR, NDB)
Fix

Horizontal Profiles

Position Reports

Time Latitude Longitude Heading Altitude Ground
Speed
29-Aug-20 19:44 48.704811 -122.909849 9 37ft 0kts
29-Aug-20 19:45 48.704811 -122.909849 9 37ft 0kts
29-Aug-20 19:46 48.704811 -122.909849 9 37ft 0kts
29-Aug-20 19:47 48.704811 -122.909849 9 37ft 0kts
29-Aug-20 19:48 48.704811 -122.909849 9 37ft 0kts
29-Aug-20 19:49 48.704811 -122.909849 9 37ft 0kts
29-Aug-20 19:50 48.704811 -122.909849 9 37ft 0kts
29-Aug-20 19:51 48.706581 -122.910014 359 31ft 17kts
29-Aug-20 19:52 48.711900 -122.909996 357 12ft 5kts
29-Aug-20 19:53 48.712018 -122.910575 178 12ft 0kts
29-Aug-20 19:54 48.691378 -122.910533 178 1366ft 124kts
29-Aug-20 19:55 48.654918 -122.910585 182 4430ft 132kts
29-Aug-20 19:56 48.614771 -122.910998 184 7184ft 145kts
29-Aug-20 19:58 48.569324 -122.911494 182 9043ft 196kts
29-Aug-20 19:59 48.499656 -122.895076 159 9010ft 267kts
29-Aug-20 20:00 48.424827 -122.852881 160 9013ft 276kts
29-Aug-20 20:01 48.365902 -122.819786 164 12810ft 180kts
29-Aug-20 20:02 48.316157 -122.792027 170 15929ft 191kts
29-Aug-20 20:03 48.252953 -122.757047 167 17048ft 289kts
29-Aug-20 20:04 48.168360 -122.709958 167 17016ft 319kts
29-Aug-20 20:05 48.079317 -122.660656 167 17015ft 323kts
29-Aug-20 20:06 47.991272 -122.612079 167 17015ft 322kts
29-Aug-20 20:07 47.904103 -122.564213 167 17016ft 322kts
29-Aug-20 20:08 47.818512 -122.517349 167 17010ft 322kts
29-Aug-20 20:09 47.732546 -122.470470 167 17011ft 323kts
29-Aug-20 20:10 47.646941 -122.423930 167 17004ft 323kts
29-Aug-20 20:11 47.561872 -122.377843 167 17006ft 323kts
29-Aug-20 20:12 47.477292 -122.332175 168 16997ft 322kts
29-Aug-20 20:13 47.419343 -122.236763 104 17009ft 339kts
29-Aug-20 20:13 47.396005 -122.125060 105 17007ft 340kts
29-Aug-20 20:15 47.361065 -121.962487 106 17015ft 338kts
29-Aug-20 20:15 47.335601 -121.844942 106 17020ft 338kts
29-Aug-20 20:16 47.304862 -121.703834 106 17021ft 338kts
29-Aug-20 20:18 47.268533 -121.538292 106 17025ft 340kts
29-Aug-20 20:18 47.242518 -121.420580 106 17025ft 339kts
29-Aug-20 20:19 47.211843 -121.282571 107 17016ft 338kts
29-Aug-20 20:21 47.175344 -121.119675 107 17103ft 337kts
29-Aug-20 20:21 47.148896 -121.002362 107 17055ft 340kts
29-Aug-20 20:22 47.117186 -120.862523 107 17031ft 337kts
29-Aug-20 20:23 47.085555 -120.723887 107 17032ft 337kts
29-Aug-20 20:24 47.053532 -120.584550 107 17037ft 337kts
29-Aug-20 20:25 47.051842 -120.450070 46 15374ft 295kts
29-Aug-20 20:26 47.119622 -120.395976 15 13944ft 252kts
29-Aug-20 20:27 47.186843 -120.351754 17 12696ft 242kts
29-Aug-20 20:28 47.250973 -120.309457 19 11417ft 240kts
29-Aug-20 20:29 47.313146 -120.267985 19 10183ft 234kts
29-Aug-20 20:30 47.374813 -120.227239 20 9163ft 226kts
29-Aug-20 20:31 47.399910 -120.144040 86 8206ft 242kts
29-Aug-20 20:32 47.400239 -120.038273 87 6775ft 243kts
29-Aug-20 20:33 47.394846 -119.933949 108 5865ft 228kts
29-Aug-20 20:34 47.353326 -119.864090 153 5921ft 210kts
29-Aug-20 20:35 47.293210 -119.851979 194 5520ft 219kts
29-Aug-20 20:36 47.242460 -119.903771 243 4836ft 207kts
29-Aug-20 20:37 47.236271 -119.987557 287 4202ft 195kts
29-Aug-20 20:38 47.273242 -120.049702 332 3781ft 186kts
29-Aug-20 20:39 47.312056 -120.079381 329 3361ft 125kts
29-Aug-20 20:40 47.345064 -120.104673 330 2959ft 119kts
29-Aug-20 20:41 47.363833 -120.142683 273 2023ft 108kts
29-Aug-20 20:42 47.379362 -120.177942 310 1701ft 101kts
29-Aug-20 20:43 47.396290 -120.203442 315 1252ft 42kts
29-Aug-20 20:44 47.401624 -120.207016 349 1252ft 12kts
29-Aug-20 20:45 47.401863 -120.207359 298 1252ft 0kts
29-Aug-20 20:46 47.401863 -120.207359 298 1252ft 0kts
29-Aug-20 20:47 47.401863 -120.207359 298 1252ft 0kts

Navigation Log

Ident Type
Flight plan parsing failed, navigation log unavailable